createdAt,value
2018-08-14T00:00:06.926Z,20.90
2018-08-14T00:02:34.607Z,22.60
2018-08-14T00:05:02.258Z,24.83
2018-08-14T00:07:29.872Z,22.40
2018-08-14T00:09:57.574Z,21.63
2018-08-14T00:12:25.277Z,23.40
2018-08-14T00:14:53.092Z,21.30
2018-08-14T00:17:20.709Z,21.43
2018-08-14T00:19:48.329Z,21.67
2018-08-14T00:22:15.862Z,21.90
2018-08-14T00:24:43.658Z,24.00
2018-08-14T00:27:11.381Z,24.17
2018-08-14T00:29:39.249Z,24.90
2018-08-14T00:32:07.009Z,20.70
2018-08-14T00:34:44.593Z,24.77
2018-08-14T00:37:12.568Z,26.63
2018-08-14T00:39:40.253Z,26.10
2018-08-14T00:42:08.137Z,22.30
2018-08-14T00:44:35.811Z,25.47
2018-08-14T00:47:03.458Z,25.50
2018-08-14T00:49:30.993Z,28.57
2018-08-14T00:51:58.632Z,27.10
2018-08-14T00:54:26.212Z,25.77
2018-08-14T00:56:53.863Z,28.73
2018-08-14T00:59:21.460Z,27.30
2018-08-14T01:01:49.300Z,29.47
2018-08-14T01:04:16.987Z,26.07
2018-08-14T01:06:44.592Z,25.60
2018-08-14T01:09:12.234Z,28.03
2018-08-14T01:11:39.868Z,24.73
2018-08-14T01:14:07.534Z,25.27
2018-08-14T01:16:35.093Z,27.40
2018-08-14T01:19:02.698Z,27.00
2018-08-14T01:21:30.370Z,27.00
2018-08-14T01:23:58.086Z,29.70
2018-08-14T01:26:25.956Z,27.50
2018-08-14T01:28:53.665Z,28.20
2018-08-14T01:31:21.354Z,26.37
2018-08-14T01:33:49.094Z,28.43
2018-08-14T01:36:16.636Z,26.93
2018-08-14T01:38:44.168Z,28.80
2018-08-14T01:41:11.764Z,26.03
2018-08-14T01:43:39.414Z,27.10
2018-08-14T01:46:07.159Z,30.10
2018-08-14T01:48:34.711Z,29.13
2018-08-14T01:51:02.274Z,32.90
2018-08-14T01:53:30.270Z,30.90
2018-08-14T01:55:58.060Z,28.40
2018-08-14T01:58:25.678Z,29.37
2018-08-14T02:00:53.316Z,30.20
2018-08-14T02:03:20.945Z,30.23
2018-08-14T02:05:48.477Z,31.97
2018-08-14T02:08:15.980Z,31.57
2018-08-14T02:10:43.477Z,31.87
2018-08-14T02:13:11.002Z,32.43
2018-08-14T02:15:38.657Z,30.27
2018-08-14T02:18:07.078Z,31.57
2018-08-14T02:20:34.649Z,31.17
2018-08-14T02:23:02.289Z,30.47
2018-08-14T02:25:29.920Z,29.27
2018-08-14T02:27:57.651Z,28.87
2018-08-14T02:30:25.337Z,29.67
2018-08-14T02:32:52.974Z,29.63
2018-08-14T02:35:20.645Z,27.03
2018-08-14T02:37:48.363Z,30.00
2018-08-14T02:40:18.448Z,27.77
2018-08-14T02:42:46.568Z,28.80
2018-08-14T02:45:14.129Z,30.33
2018-08-14T02:47:41.804Z,26.37
2018-08-14T02:50:09.998Z,27.80
2018-08-14T02:52:37.717Z,26.87
2018-08-14T02:55:06.258Z,29.50
2018-08-14T02:57:33.793Z,28.43
2018-08-14T03:00:01.463Z,31.23
2018-08-14T03:02:29.090Z,27.20
2018-08-14T03:04:56.706Z,28.30
2018-08-14T03:07:24.372Z,27.30
2018-08-14T03:09:52.325Z,28.83
2018-08-14T03:12:19.870Z,29.30
2018-08-14T03:14:55.001Z,28.10
2018-08-14T03:17:22.741Z,28.67
2018-08-14T03:19:50.328Z,29.33
2018-08-14T03:22:17.892Z,29.40
2018-08-14T03:24:45.401Z,30.83
2018-08-14T03:27:13.077Z,28.93
2018-08-14T03:29:40.668Z,28.17
2018-08-14T03:32:08.154Z,24.90
2018-08-14T03:34:35.667Z,28.77
2018-08-14T03:37:03.654Z,27.20
2018-08-14T03:39:31.177Z,30.43
2018-08-14T03:42:00.020Z,29.57
2018-08-14T03:44:27.504Z,29.50
2018-08-14T03:46:55.308Z,29.10
2018-08-14T03:49:22.770Z,29.67
2018-08-14T03:51:50.360Z,29.30
2018-08-14T03:54:17.908Z,29.90
2018-08-14T03:56:45.514Z,29.60
2018-08-14T03:59:13.095Z,30.67
2018-08-14T04:01:40.787Z,28.20
2018-08-14T04:04:08.384Z,30.10
2018-08-14T04:06:35.920Z,30.63
2018-08-14T04:09:04.532Z,30.50
2018-08-14T04:11:32.070Z,29.73
2018-08-14T04:13:59.612Z,28.20
2018-08-14T04:16:27.188Z,31.43
2018-08-14T04:18:54.717Z,29.90
2018-08-14T04:21:22.430Z,29.50
2018-08-14T04:23:49.971Z,28.33
2018-08-14T04:26:17.684Z,27.60
2018-08-14T04:28:45.261Z,29.60
2018-08-14T04:31:12.885Z,27.07
2018-08-14T04:33:40.488Z,26.10
2018-08-14T04:36:08.210Z,28.00
2018-08-14T04:38:36.053Z,30.60
2018-08-14T04:41:03.678Z,28.90
2018-08-14T04:43:31.314Z,27.87
2018-08-14T04:45:59.300Z,29.90
2018-08-14T04:48:26.914Z,30.23
2018-08-14T04:50:54.530Z,26.27
2018-08-14T04:53:22.130Z,26.10
2018-08-14T04:55:51.389Z,24.87
2018-08-14T04:58:19.159Z,25.20
2018-08-14T05:00:49.630Z,26.37
2018-08-14T05:03:17.401Z,26.37
2018-08-14T05:05:45.909Z,27.90
2018-08-14T05:08:13.523Z,26.23
2018-08-14T05:10:41.223Z,22.17
2018-08-14T05:13:08.872Z,23.80
2018-08-14T05:15:36.583Z,24.17
2018-08-14T05:18:04.351Z,23.40
2018-08-14T05:20:31.920Z,22.13
2018-08-14T05:22:59.516Z,21.37
2018-08-14T05:25:27.037Z,21.90
2018-08-14T05:27:54.617Z,20.73
2018-08-14T05:30:22.153Z,17.63
2018-08-14T05:32:49.707Z,19.50
2018-08-14T05:35:17.235Z,20.30
2018-08-14T05:37:44.795Z,18.43
2018-08-14T05:40:12.812Z,19.53
2018-08-14T05:42:40.361Z,19.00
2018-08-14T05:45:09.804Z,18.70
2018-08-14T05:47:37.361Z,18.73
2018-08-14T05:50:05.289Z,17.10
2018-08-14T05:52:32.901Z,18.63
2018-08-14T05:55:00.460Z,16.83
2018-08-14T05:57:28.000Z,17.80
2018-08-14T05:59:55.558Z,17.57
2018-08-14T06:02:23.194Z,17.40
2018-08-14T06:04:50.725Z,16.80
2018-08-14T06:07:18.313Z,16.20
2018-08-14T06:09:45.817Z,15.63
2018-08-14T06:12:13.376Z,16.40
2018-08-14T06:14:40.881Z,15.40
2018-08-14T06:17:08.373Z,15.70
2018-08-14T06:19:35.877Z,17.33
2018-08-14T06:22:03.519Z,17.23
2018-08-14T06:24:31.057Z,16.53
2018-08-14T06:26:58.547Z,17.47
2018-08-14T06:29:26.052Z,16.43
2018-08-14T06:31:53.597Z,13.93
2018-08-14T06:34:21.221Z,16.47
2018-08-14T06:36:48.731Z,16.40
2018-08-14T06:39:16.269Z,16.30
2018-08-14T06:41:44.345Z,15.90
2018-08-14T06:44:11.841Z,15.43
2018-08-14T06:46:39.408Z,15.30
2018-08-14T06:49:07.322Z,14.70
2018-08-14T06:51:34.828Z,14.50
2018-08-14T06:54:02.380Z,16.40
2018-08-14T06:56:29.885Z,13.47
2018-08-14T06:58:57.548Z,12.60
2018-08-14T07:01:25.089Z,13.60
2018-08-14T07:03:52.867Z,18.80
2018-08-14T07:06:20.352Z,18.30
2018-08-14T07:08:47.901Z,20.27
2018-08-14T07:11:15.442Z,17.30
2018-08-14T07:13:43.057Z,18.73
2018-08-14T07:16:10.605Z,20.20
2018-08-14T07:18:38.161Z,14.53
2018-08-14T07:21:05.934Z,15.70
2018-08-14T07:23:33.521Z,13.13
2018-08-14T07:26:01.023Z,14.10
2018-08-14T07:28:29.082Z,12.10
2018-08-14T07:30:56.621Z,11.47
2018-08-14T07:33:24.156Z,14.60
2018-08-14T07:35:52.014Z,18.47
2018-08-14T07:38:19.621Z,15.23
2018-08-14T07:40:47.153Z,13.10
2018-08-14T07:43:14.656Z,11.47
2018-08-14T07:45:42.173Z,11.20
2018-08-14T07:48:09.668Z,11.20
2018-08-14T07:50:37.270Z,10.17
2018-08-14T07:53:04.983Z,10.90
2018-08-14T07:55:32.484Z,10.10
2018-08-14T07:58:00.172Z,9.83
2018-08-14T08:00:28.064Z,9.07
2018-08-14T08:02:55.986Z,7.97
2018-08-14T08:05:23.525Z,8.03
2018-08-14T08:07:51.304Z,7.80
2018-08-14T08:10:18.893Z,7.20
2018-08-14T08:12:46.876Z,7.23
2018-08-14T08:15:15.764Z,5.83
2018-08-14T08:17:43.743Z,6.53
2018-08-14T08:20:20.396Z,5.80
2018-08-14T08:22:47.980Z,6.80
2018-08-14T08:25:15.490Z,5.87
2018-08-14T08:27:43.149Z,5.40
2018-08-14T08:30:10.764Z,4.90
2018-08-14T08:32:38.413Z,4.73
2018-08-14T08:35:05.941Z,5.30
2018-08-14T08:37:33.498Z,4.97
2018-08-14T08:40:01.016Z,4.70
2018-08-14T08:42:28.577Z,5.20
2018-08-14T08:44:56.127Z,5.27
2018-08-14T08:47:23.659Z,4.60
2018-08-14T08:49:51.252Z,4.10
2018-08-14T08:52:18.837Z,4.50
2018-08-14T08:54:46.481Z,3.87
2018-08-14T08:57:14.080Z,3.57
2018-08-14T08:59:41.595Z,3.60
2018-08-14T09:02:09.105Z,3.90
2018-08-14T09:04:36.693Z,4.27
2018-08-14T09:07:04.304Z,3.60
2018-08-14T09:09:31.859Z,3.73
2018-08-14T09:12:11.772Z,3.30
2018-08-14T09:14:39.320Z,2.90
2018-08-14T09:17:07.293Z,3.10
2018-08-14T09:19:34.949Z,3.33
2018-08-14T09:22:02.552Z,2.73
2018-08-14T09:24:30.110Z,2.60
2018-08-14T09:27:00.081Z,2.60
2018-08-14T09:29:27.761Z,2.80
2018-08-14T09:31:56.339Z,3.00
2018-08-14T09:34:24.738Z,2.93
2018-08-14T09:36:52.454Z,2.47
2018-08-14T09:39:20.411Z,2.67
2018-08-14T09:41:48.300Z,2.60
2018-08-14T09:44:15.969Z,2.23
2018-08-14T09:46:43.540Z,3.00
2018-08-14T09:49:11.089Z,2.27
2018-08-14T09:51:38.651Z,2.33
2018-08-14T09:54:06.201Z,3.23
2018-08-14T09:56:33.772Z,2.83
2018-08-14T09:59:04.997Z,2.30
2018-08-14T10:02:39.969Z,2.60
2018-08-14T10:05:13.168Z,2.40
2018-08-14T10:07:46.476Z,2.90
2018-08-14T10:10:14.417Z,2.97
2018-08-14T10:12:42.110Z,3.20
2018-08-14T10:15:10.016Z,2.87
2018-08-14T10:17:37.581Z,2.27
2018-08-14T10:20:07.857Z,3.10
2018-08-14T10:22:35.410Z,2.70
2018-08-14T10:25:03.945Z,2.60
2018-08-14T10:27:31.586Z,2.77
2018-08-14T10:29:59.325Z,2.30
2018-08-14T10:32:27.112Z,2.60
2018-08-14T10:34:54.968Z,2.37
2018-08-14T10:37:22.802Z,2.73
2018-08-14T10:39:50.574Z,2.40
2018-08-14T10:42:19.018Z,2.93
2018-08-14T10:44:46.810Z,3.03
2018-08-14T10:47:14.486Z,3.00
2018-08-14T10:49:42.204Z,2.60
2018-08-14T10:52:10.012Z,3.63
2018-08-14T10:54:37.743Z,3.73
2018-08-14T10:57:05.665Z,3.33
2018-08-14T10:59:33.233Z,3.17
2018-08-14T11:02:00.701Z,3.10
2018-08-14T11:04:28.272Z,3.73
2018-08-14T11:06:55.987Z,4.10
2018-08-14T11:09:23.534Z,4.80
2018-08-14T11:11:56.721Z,5.60
2018-08-14T11:14:24.421Z,5.17
2018-08-14T11:16:53.025Z,4.83
2018-08-14T11:19:20.619Z,6.13
2018-08-14T11:21:48.670Z,5.80
2018-08-14T11:24:16.124Z,6.77
2018-08-14T11:26:43.624Z,6.70
2018-08-14T11:29:11.167Z,7.07
2018-08-14T11:31:38.652Z,6.30
2018-08-14T11:34:06.303Z,7.07
2018-08-14T11:36:33.794Z,7.20
2018-08-14T11:39:01.347Z,7.00
2018-08-14T11:41:29.750Z,7.57
2018-08-14T11:43:57.387Z,8.93
2018-08-14T11:46:24.961Z,7.33
2018-08-14T11:48:52.453Z,7.90
2018-08-14T11:51:19.893Z,8.20
2018-08-14T11:53:47.492Z,7.70
2018-08-14T11:56:15.024Z,7.40
2018-08-14T11:58:42.596Z,8.13
2018-08-14T12:01:10.144Z,7.10
2018-08-14T12:03:37.737Z,6.70
2018-08-14T12:06:05.469Z,5.20
2018-08-14T12:08:33.069Z,4.00
2018-08-14T12:11:00.607Z,4.50
2018-08-14T12:13:28.165Z,2.93
2018-08-14T12:15:56.118Z,2.53
2018-08-14T12:18:23.716Z,2.20
2018-08-14T12:20:51.217Z,1.50
2018-08-14T12:23:18.816Z,1.80
2018-08-14T12:25:46.406Z,1.50
2018-08-14T12:28:14.072Z,1.60
2018-08-14T12:30:41.626Z,1.40
2018-08-14T12:33:10.015Z,1.60
2018-08-14T12:35:37.566Z,1.80
2018-08-14T12:38:05.188Z,2.30
2018-08-14T12:40:32.789Z,3.03
2018-08-14T12:43:00.400Z,2.33
2018-08-14T12:45:27.961Z,2.80
2018-08-14T12:47:55.577Z,2.33
2018-08-14T12:50:23.577Z,2.90
2018-08-14T12:52:51.131Z,2.63
2018-08-14T12:55:18.756Z,2.87
2018-08-14T12:57:46.930Z,2.77
2018-08-14T13:00:19.846Z,2.10
2018-08-14T13:02:47.376Z,2.10
2018-08-14T13:05:17.570Z,1.87
2018-08-14T13:07:45.316Z,2.30
2018-08-14T13:10:13.046Z,2.17
2018-08-14T13:12:41.389Z,1.93
2018-08-14T13:15:10.766Z,2.07
2018-08-14T13:17:38.589Z,2.67
2018-08-14T13:20:08.818Z,2.40
2018-08-14T13:22:36.677Z,1.93
2018-08-14T13:25:05.378Z,1.77
2018-08-14T13:27:33.359Z,1.47
2018-08-14T13:30:00.885Z,1.60
2018-08-14T13:32:28.904Z,1.80
2018-08-14T13:34:56.609Z,1.80
2018-08-14T13:37:24.178Z,1.77
2018-08-14T13:39:51.880Z,1.30
2018-08-14T13:42:19.381Z,2.03
2018-08-14T13:44:46.901Z,2.07
2018-08-14T13:47:14.805Z,1.73
2018-08-14T13:49:50.721Z,1.67
2018-08-14T13:52:18.725Z,1.40
2018-08-14T13:54:48.555Z,1.40
2018-08-14T13:57:19.226Z,1.33
2018-08-14T13:59:46.846Z,1.43
2018-08-14T14:02:14.926Z,1.50
2018-08-14T14:04:42.693Z,1.00
2018-08-14T14:07:10.993Z,1.10
2018-08-14T14:09:40.200Z,1.40
2018-08-14T14:12:19.620Z,1.37
2018-08-14T14:14:47.118Z,1.27
2018-08-14T14:17:14.585Z,1.13
2018-08-14T14:19:42.144Z,1.27
2018-08-14T14:22:11.529Z,1.13
2018-08-14T14:24:39.044Z,1.00
2018-08-14T14:27:06.680Z,1.80
2018-08-14T14:30:09.711Z,1.40
2018-08-14T14:32:37.981Z,1.53
2018-08-14T14:35:05.934Z,1.33
2018-08-14T14:37:33.886Z,1.50
2018-08-14T14:40:01.364Z,1.20
2018-08-14T14:42:29.168Z,1.40
2018-08-14T14:44:57.055Z,1.93
2018-08-14T14:47:24.589Z,1.60
2018-08-14T14:49:52.133Z,2.00
2018-08-14T14:52:19.856Z,1.60
2018-08-14T14:54:48.005Z,1.60
2018-08-14T14:57:15.439Z,1.70
2018-08-14T14:59:42.918Z,1.70
2018-08-14T15:02:10.496Z,1.80
2018-08-14T15:04:38.128Z,1.40
2018-08-14T15:07:05.698Z,1.17
2018-08-14T15:09:33.193Z,1.33
2018-08-14T15:12:00.756Z,1.30
2018-08-14T15:14:28.333Z,1.30
2018-08-14T15:16:55.965Z,1.57
2018-08-14T15:19:23.756Z,1.47
2018-08-14T15:21:51.684Z,1.63
2018-08-14T15:24:19.320Z,1.10
2018-08-14T15:26:46.995Z,0.97
2018-08-14T15:29:19.163Z,0.90
2018-08-14T15:31:52.258Z,1.33
2018-08-14T15:34:21.770Z,1.33
2018-08-14T15:36:52.324Z,1.60
2018-08-14T15:39:20.668Z,1.30
2018-08-14T15:41:48.361Z,1.47
2018-08-14T15:44:15.889Z,1.50
2018-08-14T15:46:43.412Z,1.33
2018-08-14T15:49:11.320Z,1.30
2018-08-14T15:51:39.064Z,1.50
2018-08-14T15:54:07.775Z,1.30
2018-08-14T15:56:35.377Z,1.10
2018-08-14T15:59:02.958Z,1.60
2018-08-14T16:01:31.225Z,1.40
2018-08-14T16:03:58.916Z,1.40
2018-08-14T16:06:26.556Z,1.30
2018-08-14T16:08:54.228Z,1.13
2018-08-14T16:11:21.844Z,1.00
2018-08-14T16:13:49.431Z,1.23
2018-08-14T16:16:17.158Z,1.73
2018-08-14T16:18:44.804Z,1.70
2018-08-14T16:21:12.463Z,1.30
2018-08-14T16:23:40.066Z,2.53
2018-08-14T16:26:07.631Z,1.33
2018-08-14T16:28:35.301Z,1.47
2018-08-14T16:31:03.579Z,1.53
2018-08-14T16:33:31.292Z,1.37
2018-08-14T16:35:58.937Z,1.60
2018-08-14T16:38:27.557Z,4.03
2018-08-14T16:40:55.444Z,1.67
2018-08-14T16:43:22.968Z,1.30
2018-08-14T16:45:50.442Z,1.53
2018-08-14T16:48:18.237Z,1.47
2018-08-14T16:50:45.804Z,2.13
2018-08-14T16:53:13.304Z,1.47
2018-08-14T16:55:41.331Z,1.43
2018-08-14T16:58:09.108Z,1.90
2018-08-14T17:00:39.045Z,1.50
2018-08-14T17:03:07.840Z,1.50
2018-08-14T17:05:35.696Z,1.30
2018-08-14T17:08:03.815Z,2.47
2018-08-14T17:10:31.336Z,1.43
2018-08-14T17:12:58.935Z,1.20
2018-08-14T17:15:26.875Z,1.80
2018-08-14T17:17:54.530Z,1.60
2018-08-14T17:20:21.009Z,1.10
2018-08-14T17:22:48.538Z,1.80
2018-08-14T17:25:16.107Z,1.20
2018-08-14T17:27:54.198Z,1.60
2018-08-14T17:30:25.859Z,1.30
2018-08-14T17:32:54.164Z,1.40
2018-08-14T17:35:21.808Z,2.33
2018-08-14T17:37:50.039Z,1.50
2018-08-14T17:40:19.467Z,1.53
2018-08-14T17:42:47.305Z,1.73
2018-08-14T17:45:19.875Z,2.10
2018-08-14T17:47:48.493Z,1.60
2018-08-14T17:50:16.100Z,1.40
2018-08-14T17:52:43.651Z,1.97
2018-08-14T17:55:11.231Z,1.40
2018-08-14T17:57:38.997Z,1.63
2018-08-14T18:00:12.748Z,1.40
2018-08-14T18:02:40.921Z,1.57
2018-08-14T18:05:09.075Z,1.47
2018-08-14T18:07:36.573Z,1.60
2018-08-14T18:10:06.712Z,1.73
2018-08-14T18:12:34.985Z,1.93
2018-08-14T18:15:02.964Z,1.70
2018-08-14T18:17:30.497Z,1.70
2018-08-14T18:19:58.205Z,1.40
2018-08-14T18:22:25.716Z,3.50
2018-08-14T18:24:53.240Z,2.20
2018-08-14T18:27:20.804Z,1.60
2018-08-14T18:29:48.476Z,1.80
2018-08-14T18:32:16.116Z,1.90
2018-08-14T18:34:43.608Z,1.57
2018-08-14T18:37:11.301Z,1.60
2018-08-14T18:39:38.833Z,1.30
2018-08-14T18:42:06.436Z,2.33
2018-08-14T18:44:33.970Z,1.60
2018-08-14T18:47:01.579Z,1.50
2018-08-14T18:49:29.347Z,2.00
2018-08-14T18:51:56.977Z,1.40
2018-08-14T18:54:24.601Z,1.60
2018-08-14T18:56:52.081Z,2.07
2018-08-14T18:59:19.779Z,2.00
2018-08-14T19:01:48.824Z,1.63
2018-08-14T19:04:16.872Z,1.50
2018-08-14T19:06:44.453Z,2.10
2018-08-14T19:09:12.221Z,2.50
2018-08-14T19:11:39.697Z,3.47
2018-08-14T19:14:07.752Z,2.00
2018-08-14T19:16:35.623Z,1.90
2018-08-14T19:19:03.269Z,2.80
2018-08-14T19:21:30.782Z,2.07
2018-08-14T19:23:58.361Z,1.90
2018-08-14T19:26:25.948Z,2.57
2018-08-14T19:28:53.490Z,2.17
2018-08-14T19:31:21.184Z,2.13
2018-08-14T19:33:48.860Z,2.27
2018-08-14T19:36:16.410Z,1.93
2018-08-14T19:38:43.967Z,1.80
2018-08-14T19:41:11.630Z,1.83
2018-08-14T19:43:39.160Z,2.40
2018-08-14T19:46:06.798Z,2.10
2018-08-14T19:48:34.301Z,1.93
2018-08-14T19:51:01.905Z,1.80
2018-08-14T19:53:30.193Z,2.10
2018-08-14T19:55:57.784Z,2.17
2018-08-14T19:58:25.438Z,1.80
2018-08-14T20:00:53.064Z,2.27
2018-08-14T20:03:20.690Z,2.43
2018-08-14T20:05:48.192Z,3.57
2018-08-14T20:08:15.785Z,2.20
2018-08-14T20:10:43.428Z,2.07
2018-08-14T20:13:10.991Z,2.03
2018-08-14T20:15:44.126Z,1.67
2018-08-14T20:18:11.680Z,2.10
2018-08-14T20:20:39.241Z,1.80
2018-08-14T20:23:06.848Z,2.00
2018-08-14T20:25:34.603Z,1.83
2018-08-14T20:28:02.200Z,2.27
2018-08-14T20:30:29.721Z,1.80
2018-08-14T20:32:59.433Z,1.70
2018-08-14T20:35:27.113Z,1.90
2018-08-14T20:37:54.683Z,1.80
2018-08-14T20:40:22.255Z,1.77
2018-08-14T20:42:49.903Z,2.17
2018-08-14T20:45:17.529Z,3.03
2018-08-14T20:47:45.153Z,2.97
2018-08-14T20:50:14.904Z,2.23
2018-08-14T20:52:42.840Z,2.17
2018-08-14T20:55:11.074Z,2.07
2018-08-14T20:57:39.904Z,2.07
2018-08-14T21:00:08.881Z,1.97
2018-08-14T21:02:36.512Z,2.87
2018-08-14T21:05:04.916Z,2.27
2018-08-14T21:07:33.509Z,2.10
2018-08-14T21:10:05.328Z,2.30
2018-08-14T21:12:38.928Z,2.07
2018-08-14T21:15:08.440Z,1.57
2018-08-14T21:17:36.104Z,1.80
2018-08-14T21:20:05.121Z,2.03
2018-08-14T21:22:32.688Z,2.20
2018-08-14T21:25:00.199Z,2.03
2018-08-14T21:27:27.788Z,2.23
2018-08-14T21:29:55.433Z,2.40
2018-08-14T21:32:23.016Z,2.70
2018-08-14T21:34:50.681Z,2.13
2018-08-14T21:37:18.192Z,2.30
2018-08-14T21:39:45.787Z,3.03
2018-08-14T21:42:13.339Z,1.90
2018-08-14T21:44:40.928Z,4.17
2018-08-14T21:47:08.569Z,2.20
2018-08-14T21:49:36.149Z,2.00
2018-08-14T21:52:03.726Z,4.10
2018-08-14T21:54:31.285Z,2.93
2018-08-14T21:56:58.834Z,3.90
2018-08-14T21:59:26.425Z,2.20
2018-08-14T22:01:54.033Z,2.80
2018-08-14T22:04:21.512Z,2.27
2018-08-14T22:06:49.082Z,2.87
2018-08-14T22:09:17.037Z,2.40
2018-08-14T22:11:44.576Z,2.37
2018-08-14T22:14:12.168Z,3.50
2018-08-14T22:16:39.739Z,2.93
2018-08-14T22:19:07.255Z,2.90
2018-08-14T22:21:34.800Z,2.53
2018-08-14T22:24:03.270Z,2.57
2018-08-14T22:26:31.380Z,2.53
2018-08-14T22:28:58.914Z,2.43
2018-08-14T22:31:26.560Z,2.77
2018-08-14T22:33:54.097Z,2.73
2018-08-14T22:36:21.801Z,2.80
2018-08-14T22:38:49.379Z,2.10
2018-08-14T22:41:16.945Z,2.30
2018-08-14T22:43:44.484Z,2.30
2018-08-14T22:46:12.013Z,2.67
2018-08-14T22:48:39.519Z,2.87
2018-08-14T22:51:07.061Z,2.00
2018-08-14T22:53:34.637Z,2.53
2018-08-14T22:56:02.149Z,2.20
2018-08-14T22:58:29.711Z,2.20
2018-08-14T23:00:57.249Z,3.10
2018-08-14T23:03:24.748Z,2.40
2018-08-14T23:05:52.296Z,3.87
2018-08-14T23:08:19.767Z,2.67
2018-08-14T23:10:47.237Z,2.90
2018-08-14T23:13:14.748Z,2.57
2018-08-14T23:15:42.241Z,3.40
2018-08-14T23:18:09.812Z,3.00
2018-08-14T23:20:37.328Z,2.70
2018-08-14T23:23:04.984Z,2.47
2018-08-14T23:25:32.501Z,2.83
2018-08-14T23:28:00.033Z,2.47
2018-08-14T23:30:27.586Z,3.10
2018-08-14T23:32:55.164Z,3.40
2018-08-14T23:35:22.708Z,3.63
2018-08-14T23:37:50.271Z,3.00
2018-08-14T23:40:17.795Z,3.10
2018-08-14T23:42:45.325Z,3.00
2018-08-14T23:45:12.949Z,2.53
2018-08-14T23:47:40.433Z,2.90
2018-08-14T23:50:10.260Z,3.30
2018-08-14T23:52:37.888Z,2.80
2018-08-14T23:55:06.716Z,3.00
2018-08-14T23:57:34.296Z,3.43
